Kezdőlap
METAR-TAF:

METAR-TAF

Repülőterek :

Mid-Way Regional Airport

Midlothian-Waxahachie, Texas, Amerikai Egyesült Államok

földrajzi szélesség: 32-27-21N, földrajzi hosszúság: 096-54-44W, magasság: 217 m

Jelenlegi meteorológiai megfigyelések

A jelentés 22 perccel ezelõtt készült, 03:35 UTC
Szélcsend
Hőmérséklet 27°C
Páratartalom 66%
Légköri nyomás 1019 hPa
Látótávolság: 16.1 km
Derült ég

METAR: KJWY 220335Z AUTO 00000KT 10SM CLR 27/20 A3009 RMK AO2 T02680204 TSNO $

Idő: 22:57 (03:57 UTC)


TAF: hiányzik

Meteorológiai megfigyelések és előrejelzések több, mint 4000 repülőtéren (METAR és TAF jelentéseket).

A térképen piros és sárga pontok jelzik az elérhető meteorológiai állomásokat.

Mozgassa az egeret a pont fölött, hogy megjelenjen az állomás neve.

Azután kattintson az időjárási megfigyelések és előrejelzések megtekintéséhez.

A térkép megváltoztatása: kattintson a fekete keresztel jelölt zöld gombra ráközelítéshez, a vonallal jelölt zöld gombra távolításhoz, vagy a zöld nyilakra a szomszédos térképek eléréséhez.


METAR-TAF: